createdAt,value
2018-04-19T00:01:06.876Z,103255.44
2018-04-19T00:03:34.498Z,103254.34
2018-04-19T00:06:01.430Z,103260.09
2018-04-19T00:08:28.289Z,103260.77
2018-04-19T00:10:55.151Z,103263.05
2018-04-19T00:13:22.104Z,103258.78
2018-04-19T00:15:49.041Z,103260.23
2018-04-19T00:18:16.680Z,103256.70
2018-04-19T00:20:43.604Z,103254.95
2018-04-19T00:23:10.529Z,103257.95
2018-04-19T00:25:38.192Z,103258.17
2018-04-19T00:28:05.865Z,103252.04
2018-04-19T00:30:33.602Z,103251.47
2018-04-19T00:33:00.517Z,103246.38
2018-04-19T00:35:27.368Z,103246.63
2018-04-19T00:37:54.368Z,103245.77
2018-04-19T00:40:22.370Z,103247.22
2018-04-19T00:42:49.508Z,103249.16
2018-04-19T00:45:16.425Z,103252.72
2018-04-19T00:47:44.025Z,103254.31
2018-04-19T00:50:10.939Z,103249.41
2018-04-19T00:52:56.937Z,103245.64
2018-04-19T00:55:24.748Z,103242.64
2018-04-19T00:57:51.612Z,103241.34
2018-04-19T01:00:18.488Z,103243.13
2018-04-19T01:02:46.206Z,103242.33
2018-04-19T01:05:13.142Z,103237.14
2018-04-19T01:07:40.019Z,103242.89
2018-04-19T01:10:06.951Z,103234.40
2018-04-19T01:12:34.037Z,103232.88
2018-04-19T01:15:01.652Z,103234.48
2018-04-19T01:17:28.526Z,103236.59
2018-04-19T01:19:55.518Z,103234.89
2018-04-19T01:22:22.380Z,103232.50
2018-04-19T01:24:49.284Z,103228.56
2018-04-19T01:27:16.940Z,103236.53
2018-04-19T01:29:44.693Z,103235.89
2018-04-19T01:32:11.613Z,103233.56
2018-04-19T01:34:38.638Z,103228.55
2018-04-19T01:37:05.521Z,103216.59
2018-04-19T01:39:32.388Z,103219.17
2018-04-19T01:42:00.037Z,103225.24
2018-04-19T01:44:27.009Z,103216.74
2018-04-19T01:46:53.991Z,103210.61
2018-04-19T01:49:20.912Z,103210.35
2018-04-19T01:51:47.846Z,103211.84
2018-04-19T01:54:15.509Z,103218.87
2018-04-19T01:56:43.181Z,103209.16
2018-04-19T01:59:10.857Z,103205.94
2018-04-19T02:01:37.765Z,103207.24
2018-04-19T02:04:04.639Z,103199.00
2018-04-19T02:06:31.583Z,103208.59
2018-04-19T02:08:58.443Z,103209.09
2018-04-19T02:11:25.348Z,103208.27
2018-04-19T02:13:53.052Z,103201.39
2018-04-19T02:16:19.973Z,103198.83
2018-04-19T02:18:47.586Z,103199.56
2018-04-19T02:21:14.597Z,103203.60
2018-04-19T02:23:41.455Z,103199.37
2018-04-19T02:26:08.412Z,103192.02
2018-04-19T02:28:35.327Z,103194.62
2018-04-19T02:31:02.192Z,103193.88
2018-04-19T02:33:29.140Z,103200.35
2018-04-19T02:35:56.258Z,103203.88
2018-04-19T02:38:23.869Z,103193.98
2018-04-19T02:40:50.792Z,103189.69
2018-04-19T02:43:17.719Z,103197.66
2018-04-19T02:45:46.266Z,103198.95
2018-04-19T02:48:13.129Z,103193.16
2018-04-19T02:50:40.896Z,103186.52
2018-04-19T02:53:07.756Z,103191.61
2018-04-19T02:55:35.408Z,103189.91
2018-04-19T02:58:02.433Z,103197.86
2018-04-19T03:00:29.424Z,103189.31
2018-04-19T03:02:56.394Z,103183.98
2018-04-19T03:05:23.341Z,103190.44
2018-04-19T03:07:50.209Z,103190.45
2018-04-19T03:10:17.133Z,103193.55
2018-04-19T03:12:44.058Z,103195.23
2018-04-19T03:15:11.187Z,103192.73
2018-04-19T03:17:38.854Z,103188.86
2018-04-19T03:20:05.775Z,103187.79
2018-04-19T03:22:32.705Z,103185.91
2018-04-19T03:24:59.630Z,103182.01
2018-04-19T03:27:26.713Z,103183.53
2018-04-19T03:29:53.566Z,103183.36
2018-04-19T03:32:20.492Z,103179.48
2018-04-19T03:34:47.422Z,103177.06
2018-04-19T03:37:14.328Z,103174.98
2018-04-19T03:39:41.989Z,103176.77
2018-04-19T03:42:09.653Z,103173.53
2018-04-19T03:44:37.320Z,103178.05
2018-04-19T03:47:04.247Z,103178.52
2018-04-19T03:49:31.165Z,103169.97
2018-04-19T03:51:58.060Z,103167.06
2018-04-19T03:54:25.708Z,103169.23
2018-04-19T03:56:52.603Z,103162.34
2018-04-19T03:59:19.508Z,103168.64
2018-04-19T04:01:47.116Z,103165.00
2018-04-19T04:04:14.080Z,103162.27
2018-04-19T04:06:41.004Z,103162.03
2018-04-19T04:09:07.928Z,103160.93
2018-04-19T04:11:34.792Z,103163.64
2018-04-19T04:14:01.658Z,103157.22
2018-04-19T04:16:46.950Z,103155.39
2018-04-19T04:19:32.098Z,103161.27
2018-04-19T04:22:17.297Z,103157.98
2018-04-19T04:24:44.178Z,103164.11
2018-04-19T04:27:11.775Z,103168.27
2018-04-19T04:29:40.637Z,103165.13
2018-04-19T04:32:08.232Z,103161.24
2018-04-19T04:34:35.221Z,103169.32
2018-04-19T04:37:02.105Z,103171.68
2018-04-19T04:39:28.983Z,103168.72
2018-04-19T04:41:55.896Z,103174.97
2018-04-19T04:44:22.785Z,103162.55
2018-04-19T04:46:49.702Z,103167.52
2018-04-19T04:49:16.612Z,103173.69
2018-04-19T04:51:44.337Z,103169.98
2018-04-19T04:54:11.207Z,103161.08
2018-04-19T04:56:38.947Z,103167.27
2018-04-19T04:59:05.820Z,103171.00
2018-04-19T05:01:33.488Z,103170.48
2018-04-19T05:04:01.203Z,103172.82
2018-04-19T05:06:28.188Z,103169.26
2018-04-19T05:08:55.089Z,103168.85
2018-04-19T05:11:22.153Z,103179.95
2018-04-19T05:13:49.942Z,103174.09
2018-04-19T05:16:16.813Z,103173.52
2018-04-19T05:18:44.520Z,103176.00
2018-04-19T05:21:11.376Z,103181.20
2018-04-19T05:23:38.309Z,103181.31
2018-04-19T05:26:05.183Z,103182.86
2018-04-19T05:28:32.092Z,103178.86
2018-04-19T05:30:58.953Z,103190.58
2018-04-19T05:33:25.822Z,103187.55
2018-04-19T05:35:52.749Z,103184.52
2018-04-19T05:38:20.424Z,103183.81
2018-04-19T05:40:47.332Z,103186.28
2018-04-19T05:43:14.208Z,103187.47
2018-04-19T05:45:41.120Z,103186.53
2018-04-19T05:48:08.089Z,103181.08
2018-04-19T05:50:35.028Z,103184.98
2018-04-19T05:53:01.969Z,103185.84
2018-04-19T05:55:28.839Z,103186.22
2018-04-19T05:57:55.767Z,103185.29
2018-04-19T06:00:22.642Z,103184.36
2018-04-19T06:02:49.574Z,103183.52
2018-04-19T06:05:16.583Z,103188.45
2018-04-19T06:07:43.460Z,103189.16
2018-04-19T06:10:10.383Z,103191.75
2018-04-19T06:12:37.244Z,103190.27
2018-04-19T06:15:04.137Z,103185.22
2018-04-19T06:17:31.818Z,103188.98
2018-04-19T06:19:58.686Z,103182.02
2018-04-19T06:22:25.645Z,103190.04
2018-04-19T06:24:52.575Z,103178.13
2018-04-19T06:27:19.499Z,103185.38
2018-04-19T06:29:47.147Z,103187.17
2018-04-19T06:32:14.805Z,103187.84
2018-04-19T06:34:41.683Z,103185.15
2018-04-19T06:37:08.634Z,103185.13
2018-04-19T06:39:35.557Z,103175.78
2018-04-19T06:42:03.223Z,103176.44
2018-04-19T06:44:30.913Z,103178.11
2018-04-19T06:46:57.930Z,103177.73
2018-04-19T06:49:25.575Z,103183.46
2018-04-19T06:51:52.492Z,103176.34
2018-04-19T06:54:19.414Z,103182.01
2018-04-19T06:56:46.267Z,103180.69
2018-04-19T06:59:13.204Z,103179.61
2018-04-19T07:01:40.382Z,103182.00
2018-04-19T07:04:07.317Z,103179.63
2018-04-19T07:06:34.977Z,103175.59
2018-04-19T07:09:01.871Z,103178.98
2018-04-19T07:11:29.584Z,103179.21
2018-04-19T07:13:56.462Z,103176.70
2018-04-19T07:16:23.488Z,103180.78
2018-04-19T07:18:50.356Z,103181.89
2018-04-19T07:21:17.227Z,103179.13
2018-04-19T07:23:44.880Z,103180.09
2018-04-19T07:26:11.757Z,103177.98
2018-04-19T07:28:38.731Z,103184.17
2018-04-19T07:31:05.639Z,103181.47
2018-04-19T07:33:32.711Z,103173.73
2018-04-19T07:35:59.585Z,103176.50
2018-04-19T07:38:26.586Z,103173.91
2018-04-19T07:40:53.514Z,103182.55
2018-04-19T07:43:21.168Z,103172.86
2018-04-19T07:45:48.086Z,103175.05
2018-04-19T07:48:15.300Z,103176.66
2018-04-19T07:50:42.206Z,103182.27
2018-04-19T07:53:09.061Z,103174.11
2018-04-19T07:55:36.021Z,103171.84
2018-04-19T07:58:03.743Z,103167.81
2018-04-19T08:00:30.614Z,103173.78
2018-04-19T08:02:57.607Z,103173.67
2018-04-19T08:05:24.543Z,103173.19
2018-04-19T08:07:51.455Z,103161.34
2018-04-19T08:10:18.398Z,103165.41
2018-04-19T08:12:45.562Z,103168.23
2018-04-19T08:15:13.166Z,103173.44
2018-04-19T08:17:40.088Z,103175.22
2018-04-19T08:20:07.084Z,103175.52
2018-04-19T08:22:34.156Z,103173.30
2018-04-19T08:25:01.261Z,103175.63
2018-04-19T08:27:28.169Z,103169.14
2018-04-19T08:29:55.819Z,103168.67
2018-04-19T08:32:22.690Z,103165.73
2018-04-19T08:34:49.685Z,103170.50
2018-04-19T08:37:16.595Z,103172.34
2018-04-19T08:39:43.537Z,103172.78
2018-04-19T08:42:10.600Z,103174.86
2018-04-19T08:44:37.477Z,103163.36
2018-04-19T08:47:04.417Z,103171.50
2018-04-19T08:49:31.383Z,103172.69
2018-04-19T08:51:58.425Z,103172.23
2018-04-19T08:54:25.298Z,103176.27
2018-04-19T08:56:52.951Z,103165.50
2018-04-19T08:59:19.848Z,103164.36
2018-04-19T09:01:46.717Z,103160.13
2018-04-19T09:04:13.586Z,103165.34
2018-04-19T09:06:41.254Z,103164.33
2018-04-19T09:09:08.922Z,103164.73
2018-04-19T09:11:36.603Z,103161.45
2018-04-19T09:14:03.544Z,103161.27
2018-04-19T09:16:30.464Z,103161.27
2018-04-19T09:18:57.372Z,103157.06
2018-04-19T09:21:24.298Z,103151.30
2018-04-19T09:23:51.234Z,103160.83
2018-04-19T09:26:18.103Z,103159.69
2018-04-19T09:28:45.060Z,103158.30
2018-04-19T09:31:11.939Z,103156.64
2018-04-19T09:33:38.988Z,103159.30
2018-04-19T09:36:06.648Z,103158.44
2018-04-19T09:38:33.526Z,103161.89
2018-04-19T09:41:00.499Z,103157.70
2018-04-19T09:43:27.408Z,103162.48
2018-04-19T09:45:55.009Z,103159.71
2018-04-19T09:48:22.087Z,103157.70
2018-04-19T09:50:49.005Z,103154.10
2018-04-19T09:53:15.966Z,103148.70
2018-04-19T09:55:42.875Z,103153.50
2018-04-19T09:58:10.070Z,103150.53
2018-04-19T10:00:43.143Z,103152.50
2018-04-19T10:03:16.640Z,103146.34
2018-04-19T10:05:46.577Z,103146.94
2018-04-19T10:08:13.580Z,103142.50
2018-04-19T10:10:40.516Z,103147.52
2018-04-19T10:13:08.110Z,103139.92
2018-04-19T10:15:34.988Z,103145.53
2018-04-19T10:18:02.255Z,103140.14
2018-04-19T10:20:29.131Z,103139.93
2018-04-19T10:22:55.993Z,103137.13
2018-04-19T10:25:22.989Z,103132.35
2018-04-19T10:27:49.852Z,103135.56
2018-04-19T10:30:17.581Z,103130.17
2018-04-19T10:32:44.496Z,103126.36
2018-04-19T10:35:11.485Z,103119.34
2018-04-19T10:37:38.389Z,103117.94
2018-04-19T10:40:05.268Z,103123.48
2018-04-19T10:42:32.233Z,103117.11
2018-04-19T10:44:59.381Z,103113.25
2018-04-19T10:47:26.252Z,103111.36
2018-04-19T10:49:53.127Z,103108.35
2018-04-19T10:52:20.042Z,103108.95
2018-04-19T10:54:46.917Z,103109.94
2018-04-19T10:57:14.013Z,103103.86
2018-04-19T10:59:40.932Z,103104.92
2018-04-19T11:02:07.944Z,103100.22
2018-04-19T11:04:34.813Z,103095.77
2018-04-19T11:07:01.799Z,103091.44
2018-04-19T11:09:28.756Z,103091.27
2018-04-19T11:11:56.454Z,103093.80
2018-04-19T11:14:23.401Z,103089.77
2018-04-19T11:16:50.304Z,103085.13
2018-04-19T11:19:17.921Z,103084.20
2018-04-19T11:21:44.853Z,103086.34
2018-04-19T11:24:11.737Z,103082.79
2018-04-19T11:26:38.714Z,103081.88
2018-04-19T11:29:06.378Z,103083.75
2018-04-19T11:31:33.979Z,103083.79
2018-04-19T11:34:00.950Z,103084.42
2018-04-19T11:36:27.813Z,103079.73
2018-04-19T11:38:54.799Z,103065.36
2018-04-19T11:41:21.720Z,103067.50
2018-04-19T11:43:49.372Z,103072.27
2018-04-19T11:46:16.300Z,103074.33
2018-04-19T11:48:43.472Z,103064.47
2018-04-19T11:51:10.392Z,103065.99
2018-04-19T11:53:37.260Z,103068.49
2018-04-19T11:56:04.206Z,103062.05
2018-04-19T11:58:31.129Z,103062.68
2018-04-19T12:00:59.175Z,103053.95
2018-04-19T12:03:26.062Z,103054.19
2018-04-19T12:05:52.987Z,103051.92
2018-04-19T12:08:19.920Z,103053.26
2018-04-19T12:10:46.784Z,103044.98
2018-04-19T12:13:13.760Z,103043.52
2018-04-19T12:15:40.669Z,103044.24
2018-04-19T12:18:07.896Z,103042.09
2018-04-19T12:20:34.865Z,103038.09
2018-04-19T12:23:02.661Z,103034.27
2018-04-19T12:25:29.598Z,103039.66
2018-04-19T12:27:56.529Z,103034.81
2018-04-19T12:30:23.401Z,103036.53
2018-04-19T12:32:50.409Z,103036.36
2018-04-19T12:35:17.388Z,103044.67
2018-04-19T12:37:44.629Z,103042.80
2018-04-19T12:40:11.505Z,103042.88
2018-04-19T12:42:38.403Z,103042.95
2018-04-19T12:45:05.372Z,103036.45
2018-04-19T12:47:32.236Z,103028.66
2018-04-19T12:49:59.170Z,103032.53
2018-04-19T12:52:26.048Z,103026.04
2018-04-19T12:54:53.800Z,103025.18
2018-04-19T12:57:21.409Z,103021.86
2018-04-19T12:59:48.276Z,103017.95
2018-04-19T13:02:16.169Z,103025.13
2018-04-19T13:04:43.076Z,103021.70
2018-04-19T13:07:09.997Z,103016.59
2018-04-19T13:09:36.924Z,103010.17
2018-04-19T13:12:04.562Z,103010.63
2018-04-19T13:14:31.472Z,103006.67
2018-04-19T13:16:58.349Z,103006.64
2018-04-19T13:19:25.360Z,102996.73
2018-04-19T13:21:52.351Z,103005.13
2018-04-19T13:24:19.226Z,102998.66
2018-04-19T13:26:47.044Z,102996.88
2018-04-19T13:29:13.980Z,102994.75
2018-04-19T13:31:42.043Z,102992.30
2018-04-19T13:34:09.028Z,102983.28
2018-04-19T13:36:35.952Z,102988.81
2018-04-19T13:39:03.056Z,102979.74
2018-04-19T13:41:30.095Z,102975.75
2018-04-19T13:43:57.806Z,102969.95
2018-04-19T13:46:24.686Z,102975.37
2018-04-19T13:48:51.677Z,102969.75
2018-04-19T13:51:18.664Z,102964.68
2018-04-19T13:53:45.767Z,102962.72
2018-04-19T13:56:12.741Z,102962.50
2018-04-19T13:58:39.619Z,102965.05
2018-04-19T14:01:06.576Z,102956.80
2018-04-19T14:03:33.449Z,102964.71
2018-04-19T14:06:00.416Z,102955.57
2018-04-19T14:08:27.419Z,102942.45
2018-04-19T14:10:54.464Z,102945.66
2018-04-19T14:13:22.006Z,102941.08
2018-04-19T14:15:48.883Z,102936.30
2018-04-19T14:18:16.585Z,102925.22
2018-04-19T14:20:43.449Z,102934.30
2018-04-19T14:23:10.330Z,102933.70
2018-04-19T14:25:38.048Z,102931.44
2018-04-19T14:28:04.921Z,102927.67
2018-04-19T14:30:32.147Z,102930.75
2018-04-19T14:32:59.015Z,102921.95
2018-04-19T14:35:25.980Z,102931.42
2018-04-19T14:37:53.656Z,102929.17
2018-04-19T14:40:21.272Z,102928.06
2018-04-19T14:42:48.192Z,102929.83
2018-04-19T14:45:15.139Z,102922.72
2018-04-19T14:47:42.018Z,102917.47
2018-04-19T14:50:08.944Z,102915.50
2018-04-19T14:52:35.818Z,102911.79
2018-04-19T14:55:02.862Z,102912.16
2018-04-19T14:57:29.801Z,102911.75
2018-04-19T14:59:56.678Z,102912.30
2018-04-19T15:02:24.337Z,102900.25
2018-04-19T15:04:51.953Z,102906.87
2018-04-19T15:07:18.876Z,102897.03
2018-04-19T15:09:45.792Z,102896.75
2018-04-19T15:12:13.816Z,102897.59
2018-04-19T15:14:46.666Z,102889.81
2018-04-19T15:17:13.594Z,102895.84
2018-04-19T15:19:40.509Z,102893.50
2018-04-19T15:22:07.409Z,102890.22
2018-04-19T15:24:34.346Z,102885.25
2018-04-19T15:27:02.016Z,102886.38
2018-04-19T15:29:29.091Z,102884.13
2018-04-19T15:31:56.039Z,102880.23
2018-04-19T15:34:23.018Z,102875.70
2018-04-19T15:36:49.921Z,102881.92
2018-04-19T15:39:16.847Z,102870.50
2018-04-19T15:41:43.813Z,102874.66
2018-04-19T15:44:10.685Z,102867.75
2018-04-19T15:46:37.548Z,102875.84
2018-04-19T15:49:04.529Z,102873.33
2018-04-19T15:51:32.132Z,102867.05
2018-04-19T15:53:58.996Z,102869.28
2018-04-19T15:56:25.921Z,102870.98
2018-04-19T15:58:52.841Z,102872.70
2018-04-19T16:01:19.769Z,102866.06
2018-04-19T16:03:47.434Z,102861.45
2018-04-19T16:06:15.105Z,102864.87
2018-04-19T16:08:42.087Z,102859.29
2018-04-19T16:11:09.025Z,102862.55
2018-04-19T16:13:35.996Z,102856.17
2018-04-19T16:16:03.637Z,102852.24
2018-04-19T16:18:30.560Z,102854.36
2018-04-19T16:20:57.706Z,102855.10
2018-04-19T16:23:24.660Z,102850.52
2018-04-19T16:25:51.546Z,102850.68
2018-04-19T16:28:18.506Z,102845.02
2018-04-19T16:30:45.560Z,102843.33
2018-04-19T16:33:12.602Z,102847.53
2018-04-19T16:35:39.582Z,102847.58
2018-04-19T16:38:07.291Z,102845.12
2018-04-19T16:40:34.179Z,102842.72
2018-04-19T16:43:01.841Z,102840.20
2018-04-19T16:45:29.513Z,102838.87
2018-04-19T16:47:57.119Z,102837.92
2018-04-19T16:50:24.046Z,102840.59
2018-04-19T16:52:50.929Z,102837.15
2018-04-19T16:55:17.853Z,102829.61
2018-04-19T16:57:44.828Z,102833.09
2018-04-19T17:00:11.765Z,102826.61
2018-04-19T17:02:38.709Z,102831.67
2018-04-19T17:05:06.374Z,102825.94
2018-04-19T17:07:33.329Z,102823.09
2018-04-19T17:10:00.188Z,102825.73
2018-04-19T17:12:27.088Z,102818.20
2018-04-19T17:14:54.039Z,102816.47
2018-04-19T17:17:21.000Z,102815.34
2018-04-19T17:19:47.868Z,102812.21
2018-04-19T17:22:14.771Z,102811.45
2018-04-19T17:24:41.743Z,102818.12
2018-04-19T17:27:08.616Z,102810.74
2018-04-19T17:29:36.289Z,102809.61
2018-04-19T17:32:03.913Z,102807.64
2018-04-19T17:34:30.826Z,102805.25
2018-04-19T17:36:57.775Z,102804.50
2018-04-19T17:39:24.631Z,102805.34
2018-04-19T17:41:51.546Z,102798.57
2018-04-19T17:44:18.463Z,102798.81
2018-04-19T17:46:45.380Z,102798.84
2018-04-19T17:49:12.356Z,102796.27
2018-04-19T17:51:39.277Z,102792.35
2018-04-19T17:54:06.279Z,102791.62
2018-04-19T17:56:33.205Z,102793.67
2018-04-19T17:59:01.064Z,102794.73
2018-04-19T18:01:28.735Z,102789.75
2018-04-19T18:03:56.342Z,102785.41
2018-04-19T18:06:23.313Z,102781.03
2018-04-19T18:08:51.813Z,102783.67
2018-04-19T18:11:18.806Z,102786.86
2018-04-19T18:13:45.679Z,102785.66
2018-04-19T18:16:12.677Z,102787.06
2018-04-19T18:18:40.384Z,102792.25
2018-04-19T18:21:07.297Z,102787.86
2018-04-19T18:23:34.900Z,102784.67
2018-04-19T18:26:01.809Z,102789.86
2018-04-19T18:28:28.857Z,102792.64
2018-04-19T18:30:56.518Z,102787.67
2018-04-19T18:33:23.439Z,102785.69
2018-04-19T18:35:52.864Z,102793.06
2018-04-19T18:38:20.471Z,102797.02
2018-04-19T18:40:47.390Z,102794.98
2018-04-19T18:43:14.531Z,102798.11
2018-04-19T18:45:41.571Z,102800.88
2018-04-19T18:48:08.526Z,102809.34
2018-04-19T18:50:35.427Z,102810.20
2018-04-19T18:53:02.293Z,102807.75
2018-04-19T18:55:30.390Z,102814.06
2018-04-19T18:57:58.124Z,102809.41
2018-04-19T19:00:25.137Z,102810.50
2018-04-19T19:02:52.193Z,102815.00
2018-04-19T19:05:19.215Z,102819.63
2018-04-19T19:07:46.081Z,102810.30
2018-04-19T19:10:12.971Z,102808.30
2018-04-19T19:12:40.612Z,102817.46
2018-04-19T19:19:03.764Z,102818.59
2018-04-19T19:21:30.835Z,102820.31
2018-04-19T19:23:57.884Z,102819.70
2018-04-19T19:26:24.769Z,102817.44
2018-04-19T19:28:52.424Z,102814.99
2018-04-19T19:31:20.093Z,102812.16
2018-04-19T19:33:47.707Z,102811.11
2018-04-19T19:36:14.668Z,102811.30
2018-04-19T19:38:41.641Z,102802.49
2018-04-19T19:41:09.253Z,102794.34
2018-04-19T19:43:36.129Z,102795.32
2018-04-19T19:46:03.059Z,102799.30
2018-04-19T19:48:29.987Z,102802.02
2018-04-19T19:50:57.658Z,102812.86
2018-04-19T19:53:24.583Z,102812.78
2018-04-19T19:55:51.440Z,102812.42
2018-04-19T19:58:18.421Z,102814.25
2018-04-19T20:00:45.328Z,102813.84
2018-04-19T20:03:12.197Z,102811.93
2018-04-19T20:05:39.136Z,102811.99
2018-04-19T20:08:06.069Z,102814.44
2018-04-19T20:10:32.935Z,102813.98
2018-04-19T20:12:59.849Z,102811.51
2018-04-19T20:15:26.716Z,102810.22
2018-04-19T20:17:53.625Z,102812.69
2018-04-19T20:20:20.492Z,102817.94
2018-04-19T20:22:47.355Z,102819.67
2018-04-19T20:25:14.269Z,102814.14
2018-04-19T20:27:41.200Z,102811.80
2018-04-19T20:30:08.870Z,102806.55
2018-04-19T20:32:35.791Z,102809.58
2018-04-19T20:35:02.865Z,102803.52
2018-04-19T20:37:29.779Z,102805.28
2018-04-19T20:39:56.700Z,102812.50
2018-04-19T20:42:23.617Z,102806.37
2018-04-19T20:44:50.477Z,102801.05
2018-04-19T20:47:17.400Z,102800.30
2018-04-19T20:49:44.262Z,102798.19
2018-04-19T20:52:11.171Z,102791.44
2018-04-19T20:54:38.789Z,102794.55
2018-04-19T20:57:06.026Z,102794.95
2018-04-19T20:59:32.890Z,102792.36
2018-04-19T21:01:59.757Z,102791.34
2018-04-19T21:04:26.725Z,102782.41
2018-04-19T21:06:54.371Z,102788.80
2018-04-19T21:09:21.449Z,102787.13
2018-04-19T21:11:48.314Z,102785.05
2018-04-19T21:14:15.171Z,102780.05
2018-04-19T21:16:42.169Z,102780.50
2018-04-19T21:19:09.776Z,102780.61
2018-04-19T21:21:36.756Z,102783.80
2018-04-19T21:24:03.694Z,102777.48
2018-04-19T21:26:30.613Z,102780.77
2018-04-19T21:28:57.584Z,102777.04
2018-04-19T21:31:24.451Z,102784.02
2018-04-19T21:33:51.370Z,102777.36
2018-04-19T21:36:19.126Z,102779.70
2018-04-19T21:38:46.000Z,102778.39
2018-04-19T21:41:12.924Z,102775.97
2018-04-19T21:43:39.851Z,102774.78
2018-04-19T21:46:06.767Z,102770.80
2018-04-19T21:48:33.645Z,102767.02
2018-04-19T21:51:01.427Z,102768.93
2018-04-19T21:53:28.314Z,102756.21
2018-04-19T21:55:56.260Z,102753.50
2018-04-19T21:58:23.453Z,102750.42
2018-04-19T22:00:50.525Z,102749.13
2018-04-19T22:03:17.457Z,102742.30
2018-04-19T22:05:44.723Z,102736.94
2018-04-19T22:08:11.701Z,102733.03
2018-04-19T22:10:38.559Z,102737.59
2018-04-19T22:13:05.562Z,102742.02
2018-04-19T22:15:32.533Z,102742.80
2018-04-19T22:17:59.502Z,102738.86
2018-04-19T22:20:26.428Z,102738.17
2018-04-19T22:22:53.291Z,102730.34
2018-04-19T22:25:20.256Z,102733.59
2018-04-19T22:27:47.862Z,102724.29
2018-04-19T22:30:15.013Z,102725.14
2018-04-19T22:32:41.880Z,102727.73
2018-04-19T22:35:08.744Z,102725.17
2018-04-19T22:37:36.236Z,102731.75
2018-04-19T22:40:03.309Z,102727.25
2018-04-19T22:42:30.256Z,102728.73
2018-04-19T22:44:57.170Z,102725.74
2018-04-19T22:47:24.044Z,102732.20
2018-04-19T22:49:51.008Z,102730.08
2018-04-19T22:52:17.886Z,102729.71
2018-04-19T22:54:44.805Z,102730.14
2018-04-19T22:57:11.716Z,102720.48
2018-04-19T22:59:43.616Z,102718.09
2018-04-19T23:02:10.549Z,102727.09
2018-04-19T23:04:38.208Z,102726.23
2018-04-19T23:07:05.103Z,102726.48
2018-04-19T23:09:32.724Z,102728.75
2018-04-19T23:11:59.883Z,102727.96
2018-04-19T23:14:26.777Z,102728.14
2018-04-19T23:16:53.709Z,102720.88
2018-04-19T23:19:21.368Z,102720.24
2018-04-19T23:21:49.016Z,102712.33
2018-04-19T23:24:15.901Z,102711.33
2018-04-19T23:26:42.966Z,102716.35
2018-04-19T23:29:09.854Z,102710.70
2018-04-19T23:31:36.799Z,102708.33
2018-04-19T23:34:03.763Z,102712.67
2018-04-19T23:36:31.399Z,102705.64
2018-04-19T23:38:58.402Z,102711.34
2018-04-19T23:41:25.340Z,102708.58
2018-04-19T23:43:52.285Z,102705.66
2018-04-19T23:46:19.187Z,102703.88
2018-04-19T23:48:46.181Z,102703.42
2018-04-19T23:51:13.139Z,102694.34
2018-04-19T23:53:40.061Z,102700.05
2018-04-19T23:56:06.966Z,102691.37
2018-04-19T23:58:34.012Z,102695.58
